3T6 weather

Clark Airport
Justin, Texas, United States

Public forecast

Using degrees Fahrenheit for public forecast. Weather courtesy of forecast.io.

METAR (pilot weather report)

Closest report is Denton Municipal Airport, 6.4 nm (11.8 km) NE. Retrieved 2019/07/23 14:53 UTC (18 minutes ago):

KDTO 231453Z 03011KT 10SM CLR 27/17 A3018 RMK AO2 SLP211 T02720172 51010

TAF (pilot weather forecast)

Forecast is more than 6 hours old.

Closest forecast is Fort Worth Alliance Airport, 8.8 nm (16.4 km) S. Retrieved 2019/07/23 06:22 UTC (9 hours ago):

TAF KAFW 230520Z 2306/2406 01014KT P6SM FEW050 BKN250